createdAt,value
2018-11-28T00:04:41.030Z,3.32
2018-11-28T00:10:36.078Z,2.56
2018-11-28T00:16:31.083Z,2.26
2018-11-28T00:22:26.068Z,2.43
2018-11-28T00:28:21.061Z,2.84
2018-11-28T00:34:16.022Z,2.67
2018-11-28T00:40:11.051Z,2.53
2018-11-28T00:46:06.038Z,2.74
2018-11-28T00:52:01.057Z,2.72
2018-11-28T00:57:56.149Z,2.04
2018-11-28T01:03:51.062Z,2.79
2018-11-28T01:09:46.049Z,2.77
2018-11-28T01:15:41.083Z,2.88
2018-11-28T01:21:36.051Z,2.88
2018-11-28T01:27:31.090Z,2.86
2018-11-28T01:33:26.071Z,3.07
2018-11-28T01:39:21.088Z,3.15
2018-11-28T01:45:16.057Z,2.96
2018-11-28T01:51:11.094Z,2.2
2018-11-28T01:57:06.048Z,2.4
2018-11-28T02:03:01.068Z,2.77
2018-11-28T02:08:56.068Z,2.37
2018-11-28T02:14:51.058Z,2.34
2018-11-28T02:20:46.083Z,2.24
2018-11-28T02:26:41.083Z,2.07
2018-11-28T02:32:36.125Z,2.16
2018-11-28T02:38:31.069Z,2.43
2018-11-28T02:44:26.075Z,2.27
2018-11-28T02:50:21.149Z,2.3
2018-11-28T02:56:16.071Z,2.3
2018-11-28T03:02:11.211Z,2.48
2018-11-28T03:08:06.096Z,1.83
2018-11-28T03:14:01.074Z,2.33
2018-11-28T03:19:56.107Z,3.15
2018-11-28T03:25:51.078Z,2.33
2018-11-28T03:31:46.071Z,2.7
2018-11-28T03:37:41.082Z,2.96
2018-11-28T03:43:36.077Z,2.27
2018-11-28T03:49:31.121Z,2.61
2018-11-28T03:55:26.183Z,2.21
2018-11-28T04:01:21.086Z,2.72
2018-11-28T04:07:16.096Z,2.27
2018-11-28T04:13:11.156Z,11.43
2018-11-28T04:19:06.110Z,11.89
2018-11-28T04:25:01.095Z,13.26
2018-11-28T04:30:56.142Z,13.79
2018-11-28T04:36:51.111Z,12.5
2018-11-28T04:42:46.116Z,7.53
2018-11-28T04:48:41.111Z,7.78
2018-11-28T04:54:36.131Z,6.15
2018-11-28T05:00:31.116Z,5.07
2018-11-28T05:06:26.123Z,3.82
2018-11-28T05:12:21.137Z,4.41
2018-11-28T05:18:16.102Z,4
2018-11-28T05:24:11.098Z,5.02
2018-11-28T05:30:06.141Z,3.29
2018-11-28T05:36:01.109Z,2.73
2018-11-28T05:41:56.130Z,3.22
2018-11-28T05:47:51.196Z,2.87
2018-11-28T05:53:46.117Z,3.05
2018-11-28T05:59:41.215Z,2.87
2018-11-28T06:05:36.165Z,2.68
2018-11-28T06:11:31.117Z,2.84
2018-11-28T06:17:26.160Z,2.72
2018-11-28T06:23:21.215Z,2.64
2018-11-28T06:29:16.117Z,2.41
2018-11-28T06:35:11.128Z,2.84
2018-11-28T06:41:06.125Z,3.12
2018-11-28T06:47:01.128Z,3.2
2018-11-28T06:52:56.118Z,2.34
2018-11-28T06:58:51.148Z,3.01
2018-11-28T07:04:46.135Z,3.2
2018-11-28T07:10:41.135Z,3.38
2018-11-28T07:16:36.141Z,2.93
2018-11-28T07:22:31.167Z,3.17
2018-11-28T07:28:26.123Z,3
2018-11-28T07:34:21.143Z,3.45
2018-11-28T07:40:16.165Z,2.87
2018-11-28T07:46:11.217Z,3.38
2018-11-28T07:52:06.124Z,3.02
2018-11-28T07:58:01.164Z,2.72
2018-11-28T08:03:56.142Z,2.8
2018-11-28T08:09:51.172Z,2.3
2018-11-28T08:15:46.215Z,2.77
2018-11-28T08:21:41.193Z,2.96
2018-11-28T08:27:36.230Z,3.16
2018-11-28T08:33:31.149Z,3.54
2018-11-28T08:39:26.179Z,2.64
2018-11-28T08:45:21.160Z,3.03
2018-11-28T08:51:16.200Z,2.58
2018-11-28T08:57:11.170Z,3.18
2018-11-28T09:03:06.167Z,3
2018-11-28T09:09:01.155Z,2.67
2018-11-28T09:14:56.166Z,3.25
2018-11-28T09:20:51.148Z,2.99
2018-11-28T09:26:46.157Z,3.08
2018-11-28T09:32:41.193Z,2.81
2018-11-28T09:38:36.187Z,2.44
2018-11-28T09:44:31.164Z,3.2
2018-11-28T09:50:26.166Z,2.88
2018-11-28T09:56:21.189Z,2.5
2018-11-28T10:02:16.150Z,2.91
2018-11-28T10:08:11.187Z,2.57
2018-11-28T10:14:06.166Z,2.37
2018-11-28T10:20:01.176Z,2.12
2018-11-28T10:25:56.229Z,2.8
2018-11-28T10:31:51.169Z,2.48
2018-11-28T10:37:46.158Z,2.37
2018-11-28T10:43:41.185Z,2.3
2018-11-28T10:49:36.198Z,2.87
2018-11-28T10:55:31.173Z,2.63
2018-11-28T11:01:26.358Z,2.57
2018-11-28T11:07:21.188Z,2.62
2018-11-28T11:13:16.180Z,2.28
2018-11-28T11:19:11.175Z,2.62
2018-11-28T11:25:06.186Z,2.9
2018-11-28T11:31:01.195Z,2.72
2018-11-28T11:36:56.206Z,2.53
2018-11-28T11:42:51.278Z,2.52
2018-11-28T11:48:46.192Z,2.46
2018-11-28T11:54:41.225Z,2.47
2018-11-28T12:00:36.186Z,2.42
2018-11-28T12:06:31.277Z,2.58
2018-11-28T12:12:26.198Z,2.13
2018-11-28T12:18:21.182Z,2.25
2018-11-28T12:24:16.311Z,2.58
2018-11-28T12:30:11.213Z,2.68
2018-11-28T12:36:06.214Z,3.2
2018-11-28T12:42:01.217Z,2.66
2018-11-28T12:47:56.246Z,3
2018-11-28T12:53:51.253Z,2.91
2018-11-28T12:59:46.218Z,2.78
2018-11-28T13:05:41.232Z,2.48
2018-11-28T13:11:36.240Z,2.96
2018-11-28T13:17:31.233Z,2.94
2018-11-28T13:23:26.270Z,2.72
2018-11-28T13:29:21.208Z,4.77
2018-11-28T13:35:16.216Z,2.76
2018-11-28T13:41:11.306Z,3.46
2018-11-28T13:47:06.216Z,1.97
2018-11-28T13:53:01.249Z,2.8
2018-11-28T13:58:56.247Z,2.97
2018-11-28T14:04:51.256Z,3.13
2018-11-28T14:10:46.238Z,3.39
2018-11-28T14:16:41.214Z,3.19
2018-11-28T14:22:36.314Z,3.51
2018-11-28T14:28:31.274Z,7.01
2018-11-28T14:34:26.249Z,3.49
2018-11-28T14:40:21.277Z,3.92
2018-11-28T14:46:16.218Z,6.95
2018-11-28T14:52:11.299Z,4.29
2018-11-28T14:58:06.252Z,4.14
2018-11-28T15:04:01.235Z,3.02
2018-11-28T15:09:56.247Z,2.09
2018-11-28T15:15:51.254Z,3.22
2018-11-28T15:21:46.266Z,2.72
2018-11-28T15:27:41.229Z,3.22
2018-11-28T15:33:36.232Z,16.42
2018-11-28T15:39:31.256Z,3.41
2018-11-28T15:45:26.228Z,3.28
2018-11-28T15:51:21.296Z,3.01
2018-11-28T15:57:16.297Z,7.7
2018-11-28T16:03:11.248Z,19.01
2018-11-28T16:09:06.279Z,14.81
2018-11-28T16:15:01.292Z,7.41
2018-11-28T16:21:02.777Z,9.52
2018-11-28T16:26:51.299Z,3.79
2018-11-28T16:32:46.271Z,3.95
2018-11-28T16:38:41.310Z,6.5
2018-11-28T16:44:36.252Z,6.08
2018-11-28T16:50:31.243Z,13.39
2018-11-28T16:56:26.269Z,6.63
2018-11-28T17:02:21.278Z,5.38
2018-11-28T17:08:16.269Z,33.29
2018-11-28T17:14:11.278Z,15.58
2018-11-28T17:20:06.258Z,23
2018-11-28T17:26:01.254Z,6.94
2018-11-28T17:31:56.301Z,4.13
2018-11-28T17:37:51.289Z,12.81
2018-11-28T17:43:46.273Z,6.92
2018-11-28T17:49:41.248Z,7.1
2018-11-28T17:55:36.273Z,8.6
2018-11-28T18:01:31.283Z,6.77
2018-11-28T18:07:26.270Z,4.59
2018-11-28T18:13:21.305Z,6.01
2018-11-28T18:19:16.321Z,9.02
2018-11-28T18:25:11.289Z,9.2
2018-11-28T18:31:06.345Z,13.96
2018-11-28T18:37:02.786Z,9.21
2018-11-28T18:42:56.296Z,8.44
2018-11-28T18:48:51.285Z,9.89
2018-11-28T18:54:46.297Z,11.51
2018-11-28T19:00:41.292Z,8.71
2018-11-28T19:06:36.264Z,17.5
2018-11-28T19:12:31.306Z,24.77
2018-11-28T19:18:26.314Z,9.05
2018-11-28T19:24:21.278Z,19.63
2018-11-28T19:30:16.293Z,25.67
2018-11-28T19:36:11.289Z,11.5
2018-11-28T19:42:06.296Z,7.28
2018-11-28T19:48:01.308Z,6.79
2018-11-28T19:53:56.946Z,7
2018-11-28T19:59:51.292Z,6.27
2018-11-28T20:05:46.313Z,4.83
2018-11-28T20:11:41.324Z,6.04
2018-11-28T20:17:36.365Z,3.88
2018-11-28T20:23:31.297Z,3.85
2018-11-28T20:29:26.308Z,5.59
2018-11-28T20:35:21.322Z,4.28
2018-11-28T20:41:16.300Z,4.24
2018-11-28T20:47:11.318Z,3.6
2018-11-28T20:53:06.297Z,3.92
2018-11-28T20:59:01.399Z,3.57
2018-11-28T21:04:56.326Z,4.81
2018-11-28T21:10:51.374Z,3.51
2018-11-28T21:16:46.398Z,3.26
2018-11-28T21:22:41.326Z,7.17
2018-11-28T21:28:36.331Z,3.16
2018-11-28T21:34:31.360Z,1.9
2018-11-28T21:40:26.314Z,3.56
2018-11-28T21:46:21.372Z,3.99
2018-11-28T21:52:16.325Z,4.53
2018-11-28T21:58:11.328Z,3.8
2018-11-28T22:04:06.359Z,3.49
2018-11-28T22:10:01.349Z,2.97
2018-11-28T22:15:56.363Z,2.89
2018-11-28T22:21:51.381Z,4.26
2018-11-28T22:27:46.346Z,3.59
2018-11-28T22:33:41.400Z,3.25
2018-11-28T22:39:36.344Z,2.02
2018-11-28T22:45:31.338Z,2.77
2018-11-28T22:51:26.367Z,2.39
2018-11-28T22:57:21.363Z,3.05
2018-11-28T23:03:16.342Z,4.16
2018-11-28T23:09:11.458Z,2.87
2018-11-28T23:15:06.345Z,3.06
2018-11-28T23:21:01.353Z,1.78
2018-11-28T23:26:56.354Z,2.09
2018-11-28T23:32:51.325Z,2.21
2018-11-28T23:38:46.353Z,2
2018-11-28T23:44:41.373Z,1.97
2018-11-28T23:50:36.376Z,1.79
2018-11-28T23:56:31.345Z,2.88
